sensor_id;sensor_type;location;lat;lon;timestamp;P1;durP1;ratioP1;P2;durP2;ratioP2
35644;SDS011;21764;52.042;6.830;2023-02-28T00:03:05;30.95;;;14.52;;
35644;SDS011;21764;52.042;6.830;2023-02-28T00:08:07;34.70;;;15.25;;
35644;SDS011;21764;52.042;6.830;2023-02-28T00:13:07;25.55;;;12.60;;
35644;SDS011;21764;52.042;6.830;2023-02-28T00:18:08;24.70;;;12.82;;
35644;SDS011;21764;52.042;6.830;2023-02-28T00:23:09;19.77;;;11.45;;
35644;SDS011;21764;52.042;6.830;2023-02-28T00:28:09;27.23;;;13.57;;
35644;SDS011;21764;52.042;6.830;2023-02-28T00:33:11;25.23;;;12.15;;
35644;SDS011;21764;52.042;6.830;2023-02-28T00:38:12;30.92;;;13.80;;
35644;SDS011;21764;52.042;6.830;2023-02-28T00:43:13;24.20;;;12.95;;
35644;SDS011;21764;52.042;6.830;2023-02-28T00:48:14;25.65;;;13.77;;
35644;SDS011;21764;52.042;6.830;2023-02-28T00:53:16;27.23;;;13.13;;
35644;SDS011;21764;52.042;6.830;2023-02-28T00:58:16;23.70;;;14.25;;
35644;SDS011;21764;52.042;6.830;2023-02-28T01:03:17;25.33;;;13.50;;
35644;SDS011;21764;52.042;6.830;2023-02-28T01:08:19;23.60;;;12.77;;
35644;SDS011;21764;52.042;6.830;2023-02-28T01:13:20;25.65;;;13.38;;
35644;SDS011;21764;52.042;6.830;2023-02-28T01:18:23;24.55;;;13.07;;
35644;SDS011;21764;52.042;6.830;2023-02-28T01:23:24;23.42;;;12.65;;
35644;SDS011;21764;52.042;6.830;2023-02-28T01:28:25;28.13;;;13.00;;
35644;SDS011;21764;52.042;6.830;2023-02-28T01:33:25;28.77;;;13.93;;
35644;SDS011;21764;52.042;6.830;2023-02-28T01:38:26;22.80;;;12.93;;
35644;SDS011;21764;52.042;6.830;2023-02-28T01:43:30;23.98;;;12.75;;
35644;SDS011;21764;52.042;6.830;2023-02-28T01:54:18;29.88;;;13.57;;
35644;SDS011;21764;52.042;6.830;2023-02-28T01:59:36;26.38;;;12.60;;
35644;SDS011;21764;52.042;6.830;2023-02-28T02:04:50;21.92;;;12.43;;
35644;SDS011;21764;52.042;6.830;2023-02-28T02:10:06;23.63;;;12.95;;
35644;SDS011;21764;52.042;6.830;2023-02-28T02:15:16;19.88;;;10.85;;
35644;SDS011;21764;52.042;6.830;2023-02-28T02:31:28;22.35;;;11.68;;
35644;SDS011;21764;52.042;6.830;2023-02-28T02:36:49;19.83;;;11.10;;
35644;SDS011;21764;52.042;6.830;2023-02-28T02:41:58;20.92;;;10.73;;
35644;SDS011;21764;52.042;6.830;2023-02-28T02:47:08;22.52;;;11.30;;
35644;SDS011;21764;52.042;6.830;2023-02-28T02:52:13;23.25;;;10.48;;
35644;SDS011;21764;52.042;6.830;2023-02-28T02:57:35;18.63;;;10.63;;
35644;SDS011;21764;52.042;6.830;2023-02-28T03:02:43;19.33;;;10.77;;
35644;SDS011;21764;52.042;6.830;2023-02-28T03:07:45;23.08;;;11.27;;
35644;SDS011;21764;52.042;6.830;2023-02-28T03:12:49;18.80;;;10.52;;
35644;SDS011;21764;52.042;6.830;2023-02-28T03:18:03;18.08;;;10.55;;
35644;SDS011;21764;52.042;6.830;2023-02-28T03:23:16;18.88;;;10.07;;
35644;SDS011;21764;52.042;6.830;2023-02-28T03:28:28;26.27;;;10.25;;
35644;SDS011;21764;52.042;6.830;2023-02-28T03:33:44;18.05;;;10.32;;
35644;SDS011;21764;52.042;6.830;2023-02-28T03:38:57;18.75;;;10.05;;
35644;SDS011;21764;52.042;6.830;2023-02-28T03:44:46;22.40;;;10.13;;
35644;SDS011;21764;52.042;6.830;2023-02-28T03:49:31;17.17;;;9.50;;
35644;SDS011;21764;52.042;6.830;2023-02-28T03:54:48;21.35;;;9.75;;
35644;SDS011;21764;52.042;6.830;2023-02-28T03:59:54;18.63;;;9.85;;
35644;SDS011;21764;52.042;6.830;2023-02-28T04:04:59;18.67;;;9.57;;
35644;SDS011;21764;52.042;6.830;2023-02-28T04:10:00;18.73;;;8.95;;
35644;SDS011;21764;52.042;6.830;2023-02-28T04:15:01;18.00;;;9.68;;
35644;SDS011;21764;52.042;6.830;2023-02-28T04:20:03;21.38;;;9.57;;
35644;SDS011;21764;52.042;6.830;2023-02-28T04:25:09;21.33;;;9.75;;
35644;SDS011;21764;52.042;6.830;2023-02-28T04:30:10;19.95;;;10.15;;
35644;SDS011;21764;52.042;6.830;2023-02-28T04:35:11;20.52;;;10.90;;
35644;SDS011;21764;52.042;6.830;2023-02-28T04:40:12;20.45;;;10.77;;
35644;SDS011;21764;52.042;6.830;2023-02-28T04:45:13;22.48;;;10.27;;
35644;SDS011;21764;52.042;6.830;2023-02-28T04:50:29;27.33;;;12.85;;
35644;SDS011;21764;52.042;6.830;2023-02-28T04:55:30;30.95;;;15.25;;
35644;SDS011;21764;52.042;6.830;2023-02-28T05:00:30;21.15;;;11.63;;
35644;SDS011;21764;52.042;6.830;2023-02-28T05:05:31;20.65;;;11.07;;
35644;SDS011;21764;52.042;6.830;2023-02-28T05:10:32;24.45;;;11.23;;
35644;SDS011;21764;52.042;6.830;2023-02-28T05:15:33;25.15;;;11.30;;
35644;SDS011;21764;52.042;6.830;2023-02-28T05:20:34;25.15;;;11.90;;
35644;SDS011;21764;52.042;6.830;2023-02-28T05:25:34;22.27;;;10.40;;
35644;SDS011;21764;52.042;6.830;2023-02-28T05:30:35;20.20;;;10.50;;
35644;SDS011;21764;52.042;6.830;2023-02-28T05:35:37;21.92;;;11.13;;
35644;SDS011;21764;52.042;6.830;2023-02-28T05:40:40;17.00;;;9.97;;
35644;SDS011;21764;52.042;6.830;2023-02-28T05:45:41;25.15;;;11.20;;
35644;SDS011;21764;52.042;6.830;2023-02-28T05:50:43;26.33;;;11.65;;
35644;SDS011;21764;52.042;6.830;2023-02-28T05:55:45;22.70;;;13.05;;
35644;SDS011;21764;52.042;6.830;2023-02-28T06:00:46;28.13;;;13.52;;
35644;SDS011;21764;52.042;6.830;2023-02-28T06:05:48;20.63;;;10.63;;
35644;SDS011;21764;52.042;6.830;2023-02-28T06:10:48;21.25;;;11.38;;
35644;SDS011;21764;52.042;6.830;2023-02-28T06:15:49;25.00;;;13.25;;
35644;SDS011;21764;52.042;6.830;2023-02-28T06:20:53;24.88;;;12.80;;
35644;SDS011;21764;52.042;6.830;2023-02-28T06:25:54;26.55;;;13.38;;
35644;SDS011;21764;52.042;6.830;2023-02-28T06:30:58;24.13;;;13.07;;
35644;SDS011;21764;52.042;6.830;2023-02-28T06:35:58;28.70;;;14.40;;
35644;SDS011;21764;52.042;6.830;2023-02-28T06:41:00;30.17;;;15.55;;
35644;SDS011;21764;52.042;6.830;2023-02-28T06:46:02;31.65;;;14.43;;
35644;SDS011;21764;52.042;6.830;2023-02-28T06:51:11;23.48;;;11.98;;
35644;SDS011;21764;52.042;6.830;2023-02-28T06:56:14;21.33;;;12.00;;
35644;SDS011;21764;52.042;6.830;2023-02-28T07:01:16;24.05;;;13.65;;
35644;SDS011;21764;52.042;6.830;2023-02-28T07:06:20;22.05;;;10.80;;
35644;SDS011;21764;52.042;6.830;2023-02-28T07:11:25;18.88;;;11.20;;
35644;SDS011;21764;52.042;6.830;2023-02-28T07:16:27;26.23;;;11.68;;
35644;SDS011;21764;52.042;6.830;2023-02-28T07:21:27;23.52;;;12.35;;
35644;SDS011;21764;52.042;6.830;2023-02-28T07:26:28;17.25;;;10.90;;
35644;SDS011;21764;52.042;6.830;2023-02-28T07:31:29;19.35;;;10.75;;
35644;SDS011;21764;52.042;6.830;2023-02-28T07:36:30;19.33;;;9.77;;
35644;SDS011;21764;52.042;6.830;2023-02-28T07:41:30;15.65;;;8.60;;
35644;SDS011;21764;52.042;6.830;2023-02-28T07:46:33;15.68;;;9.23;;
35644;SDS011;21764;52.042;6.830;2023-02-28T07:51:35;13.02;;;8.45;;
35644;SDS011;21764;52.042;6.830;2023-02-28T07:56:36;12.70;;;7.82;;
35644;SDS011;21764;52.042;6.830;2023-02-28T08:01:36;11.63;;;7.55;;
35644;SDS011;21764;52.042;6.830;2023-02-28T08:06:38;12.80;;;7.07;;
35644;SDS011;21764;52.042;6.830;2023-02-28T08:11:38;15.95;;;8.38;;
35644;SDS011;21764;52.042;6.830;2023-02-28T08:16:39;9.43;;;6.20;;
35644;SDS011;21764;52.042;6.830;2023-02-28T08:21:40;11.35;;;7.05;;
35644;SDS011;21764;52.042;6.830;2023-02-28T08:26:40;11.40;;;6.65;;
35644;SDS011;21764;52.042;6.830;2023-02-28T08:31:41;8.27;;;4.60;;
35644;SDS011;21764;52.042;6.830;2023-02-28T08:36:42;7.50;;;4.35;;
35644;SDS011;21764;52.042;6.830;2023-02-28T08:41:44;12.30;;;5.82;;
35644;SDS011;21764;52.042;6.830;2023-02-28T08:46:45;9.35;;;5.53;;
35644;SDS011;21764;52.042;6.830;2023-02-28T08:51:46;8.00;;;5.15;;
35644;SDS011;21764;52.042;6.830;2023-02-28T08:56:46;6.18;;;4.55;;
35644;SDS011;21764;52.042;6.830;2023-02-28T09:01:47;8.98;;;4.93;;
35644;SDS011;21764;52.042;6.830;2023-02-28T09:06:48;7.60;;;5.07;;
35644;SDS011;21764;52.042;6.830;2023-02-28T09:11:50;6.53;;;4.43;;
35644;SDS011;21764;52.042;6.830;2023-02-28T09:16:50;11.80;;;5.60;;
35644;SDS011;21764;52.042;6.830;2023-02-28T09:21:51;9.95;;;7.28;;
35644;SDS011;21764;52.042;6.830;2023-02-28T09:26:52;11.07;;;7.30;;
35644;SDS011;21764;52.042;6.830;2023-02-28T09:31:53;9.48;;;5.82;;
35644;SDS011;21764;52.042;6.830;2023-02-28T09:36:53;9.48;;;5.45;;
35644;SDS011;21764;52.042;6.830;2023-02-28T09:41:56;8.70;;;4.90;;
35644;SDS011;21764;52.042;6.830;2023-02-28T09:46:59;8.63;;;5.20;;
35644;SDS011;21764;52.042;6.830;2023-02-28T09:52:09;6.65;;;4.65;;
35644;SDS011;21764;52.042;6.830;2023-02-28T09:57:19;7.53;;;4.00;;
35644;SDS011;21764;52.042;6.830;2023-02-28T10:08:11;3.10;;;2.10;;
35644;SDS011;21764;52.042;6.830;2023-02-28T10:18:28;4.25;;;2.45;;
35644;SDS011;21764;52.042;6.830;2023-02-28T10:23:38;3.05;;;2.42;;
35644;SDS011;21764;52.042;6.830;2023-02-28T10:28:38;4.00;;;2.65;;
35644;SDS011;21764;52.042;6.830;2023-02-28T10:33:40;3.40;;;2.90;;
35644;SDS011;21764;52.042;6.830;2023-02-28T10:38:40;4.22;;;2.97;;
35644;SDS011;21764;52.042;6.830;2023-02-28T10:43:41;3.25;;;2.70;;
35644;SDS011;21764;52.042;6.830;2023-02-28T10:48:45;4.65;;;2.78;;
35644;SDS011;21764;52.042;6.830;2023-02-28T10:53:57;4.70;;;2.80;;
35644;SDS011;21764;52.042;6.830;2023-02-28T10:59:00;4.28;;;3.20;;
35644;SDS011;21764;52.042;6.830;2023-02-28T11:14:36;3.63;;;1.95;;
35644;SDS011;21764;52.042;6.830;2023-02-28T11:19:53;3.55;;;1.92;;
35644;SDS011;21764;52.042;6.830;2023-02-28T11:25:00;4.68;;;1.35;;
35644;SDS011;21764;52.042;6.830;2023-02-28T11:30:02;1.95;;;1.42;;
35644;SDS011;21764;52.042;6.830;2023-02-28T11:40:15;3.45;;;2.08;;
35644;SDS011;21764;52.042;6.830;2023-02-28T11:55:56;4.38;;;1.80;;
35644;SDS011;21764;52.042;6.830;2023-02-28T12:01:31;3.20;;;1.92;;
35644;SDS011;21764;52.042;6.830;2023-02-28T12:34:22;3.97;;;2.30;;
35644;SDS011;21764;52.042;6.830;2023-02-28T12:39:34;3.97;;;2.65;;
35644;SDS011;21764;52.042;6.830;2023-02-28T12:45:28;6.53;;;3.05;;
35644;SDS011;21764;52.042;6.830;2023-02-28T12:50:28;4.05;;;2.10;;
35644;SDS011;21764;52.042;6.830;2023-02-28T12:55:38;3.73;;;2.30;;
35644;SDS011;21764;52.042;6.830;2023-02-28T13:11:33;4.50;;;2.45;;
35644;SDS011;21764;52.042;6.830;2023-02-28T13:16:55;5.15;;;2.50;;
35644;SDS011;21764;52.042;6.830;2023-02-28T13:21:59;5.85;;;2.20;;
35644;SDS011;21764;52.042;6.830;2023-02-28T13:47:22;8.90;;;2.60;;
35644;SDS011;21764;52.042;6.830;2023-02-28T13:52:27;5.88;;;2.75;;
35644;SDS011;21764;52.042;6.830;2023-02-28T14:08:05;4.43;;;2.25;;
35644;SDS011;21764;52.042;6.830;2023-02-28T14:18:51;4.50;;;2.75;;
35644;SDS011;21764;52.042;6.830;2023-02-28T14:40:25;7.60;;;4.60;;
35644;SDS011;21764;52.042;6.830;2023-02-28T14:45:31;4.53;;;3.28;;
35644;SDS011;21764;52.042;6.830;2023-02-28T14:50:35;7.45;;;2.83;;
35644;SDS011;21764;52.042;6.830;2023-02-28T14:55:36;6.75;;;3.22;;
35644;SDS011;21764;52.042;6.830;2023-02-28T15:00:47;4.25;;;3.67;;
35644;SDS011;21764;52.042;6.830;2023-02-28T15:05:53;10.05;;;4.35;;
35644;SDS011;21764;52.042;6.830;2023-02-28T15:10:58;5.18;;;3.20;;
35644;SDS011;21764;52.042;6.830;2023-02-28T15:16:22;6.00;;;3.33;;
35644;SDS011;21764;52.042;6.830;2023-02-28T15:21:43;6.18;;;3.33;;
35644;SDS011;21764;52.042;6.830;2023-02-28T15:26:48;5.78;;;3.40;;
35644;SDS011;21764;52.042;6.830;2023-02-28T15:32:02;3.97;;;3.03;;
35644;SDS011;21764;52.042;6.830;2023-02-28T15:42:34;7.00;;;4.30;;
35644;SDS011;21764;52.042;6.830;2023-02-28T15:47:35;9.23;;;5.95;;
35644;SDS011;21764;52.042;6.830;2023-02-28T15:57:45;8.07;;;4.18;;
35644;SDS011;21764;52.042;6.830;2023-02-28T16:02:48;6.47;;;3.80;;
35644;SDS011;21764;52.042;6.830;2023-02-28T16:07:49;6.50;;;4.18;;
35644;SDS011;21764;52.042;6.830;2023-02-28T16:12:49;5.07;;;4.03;;
35644;SDS011;21764;52.042;6.830;2023-02-28T16:17:50;5.05;;;2.92;;
35644;SDS011;21764;52.042;6.830;2023-02-28T16:22:52;5.80;;;4.10;;
35644;SDS011;21764;52.042;6.830;2023-02-28T16:27:53;7.88;;;4.63;;
35644;SDS011;21764;52.042;6.830;2023-02-28T16:32:55;6.45;;;4.18;;
35644;SDS011;21764;52.042;6.830;2023-02-28T16:37:56;7.68;;;4.20;;
35644;SDS011;21764;52.042;6.830;2023-02-28T16:42:57;6.80;;;3.42;;
35644;SDS011;21764;52.042;6.830;2023-02-28T16:47:59;6.65;;;4.30;;
35644;SDS011;21764;52.042;6.830;2023-02-28T16:53:00;7.43;;;4.40;;
35644;SDS011;21764;52.042;6.830;2023-02-28T16:58:01;6.68;;;4.53;;
35644;SDS011;21764;52.042;6.830;2023-02-28T17:03:03;7.05;;;4.97;;
35644;SDS011;21764;52.042;6.830;2023-02-28T17:08:04;17.42;;;8.88;;
35644;SDS011;21764;52.042;6.830;2023-02-28T17:13:05;25.88;;;14.45;;
35644;SDS011;21764;52.042;6.830;2023-02-28T17:18:08;12.85;;;7.18;;
35644;SDS011;21764;52.042;6.830;2023-02-28T17:23:13;20.02;;;11.57;;
35644;SDS011;21764;52.042;6.830;2023-02-28T17:28:14;29.83;;;13.43;;
35644;SDS011;21764;52.042;6.830;2023-02-28T17:33:15;26.13;;;11.00;;
35644;SDS011;21764;52.042;6.830;2023-02-28T17:38:17;21.75;;;9.38;;
35644;SDS011;21764;52.042;6.830;2023-02-28T17:43:19;34.30;;;18.10;;
35644;SDS011;21764;52.042;6.830;2023-02-28T17:48:19;19.73;;;13.27;;
35644;SDS011;21764;52.042;6.830;2023-02-28T17:53:20;12.13;;;7.30;;
35644;SDS011;21764;52.042;6.830;2023-02-28T17:58:24;11.75;;;6.55;;
35644;SDS011;21764;52.042;6.830;2023-02-28T18:03:25;13.63;;;6.40;;
35644;SDS011;21764;52.042;6.830;2023-02-28T18:08:28;14.73;;;8.70;;
35644;SDS011;21764;52.042;6.830;2023-02-28T18:13:28;49.22;;;19.83;;
35644;SDS011;21764;52.042;6.830;2023-02-28T18:18:36;13.27;;;6.95;;
35644;SDS011;21764;52.042;6.830;2023-02-28T18:23:37;9.50;;;6.30;;
35644;SDS011;21764;52.042;6.830;2023-02-28T18:28:46;21.08;;;10.23;;
35644;SDS011;21764;52.042;6.830;2023-02-28T18:33:48;19.75;;;13.05;;
35644;SDS011;21764;52.042;6.830;2023-02-28T18:38:49;19.90;;;8.65;;
35644;SDS011;21764;52.042;6.830;2023-02-28T18:43:51;19.92;;;8.68;;
35644;SDS011;21764;52.042;6.830;2023-02-28T18:48:53;10.38;;;5.38;;
35644;SDS011;21764;52.042;6.830;2023-02-28T18:53:53;18.80;;;9.05;;
35644;SDS011;21764;52.042;6.830;2023-02-28T18:58:56;26.73;;;13.00;;
35644;SDS011;21764;52.042;6.830;2023-02-28T19:03:57;13.07;;;8.40;;
35644;SDS011;21764;52.042;6.830;2023-02-28T19:09:02;15.32;;;6.13;;
35644;SDS011;21764;52.042;6.830;2023-02-28T19:14:03;18.10;;;8.68;;
35644;SDS011;21764;52.042;6.830;2023-02-28T19:19:04;16.55;;;8.95;;
35644;SDS011;21764;52.042;6.830;2023-02-28T19:24:05;23.40;;;10.27;;
35644;SDS011;21764;52.042;6.830;2023-02-28T19:29:06;23.05;;;11.13;;
35644;SDS011;21764;52.042;6.830;2023-02-28T19:34:06;20.33;;;12.13;;
35644;SDS011;21764;52.042;6.830;2023-02-28T19:39:07;25.40;;;10.80;;
35644;SDS011;21764;52.042;6.830;2023-02-28T19:44:08;18.70;;;11.00;;
35644;SDS011;21764;52.042;6.830;2023-02-28T19:49:09;30.02;;;14.73;;
35644;SDS011;21764;52.042;6.830;2023-02-28T19:54:09;37.80;;;23.75;;
35644;SDS011;21764;52.042;6.830;2023-02-28T19:59:10;22.55;;;13.65;;
35644;SDS011;21764;52.042;6.830;2023-02-28T20:04:11;16.60;;;10.55;;
35644;SDS011;21764;52.042;6.830;2023-02-28T20:09:12;14.00;;;8.68;;
35644;SDS011;21764;52.042;6.830;2023-02-28T20:14:13;17.80;;;10.00;;
35644;SDS011;21764;52.042;6.830;2023-02-28T20:19:13;21.38;;;11.52;;
35644;SDS011;21764;52.042;6.830;2023-02-28T20:24:14;21.25;;;12.32;;
35644;SDS011;21764;52.042;6.830;2023-02-28T20:29:15;22.20;;;10.90;;
35644;SDS011;21764;52.042;6.830;2023-02-28T20:34:16;16.10;;;9.07;;
35644;SDS011;21764;52.042;6.830;2023-02-28T20:39:17;15.68;;;9.55;;
35644;SDS011;21764;52.042;6.830;2023-02-28T20:44:17;16.33;;;9.68;;
35644;SDS011;21764;52.042;6.830;2023-02-28T20:49:18;15.80;;;8.50;;
35644;SDS011;21764;52.042;6.830;2023-02-28T20:54:19;15.82;;;8.82;;
35644;SDS011;21764;52.042;6.830;2023-02-28T20:59:20;15.10;;;8.63;;
35644;SDS011;21764;52.042;6.830;2023-02-28T21:04:21;14.45;;;9.65;;
35644;SDS011;21764;52.042;6.830;2023-02-28T21:09:22;15.00;;;8.90;;
35644;SDS011;21764;52.042;6.830;2023-02-28T21:14:23;22.25;;;12.10;;
35644;SDS011;21764;52.042;6.830;2023-02-28T21:19:25;13.38;;;8.52;;
35644;SDS011;21764;52.042;6.830;2023-02-28T21:24:25;17.45;;;10.25;;
35644;SDS011;21764;52.042;6.830;2023-02-28T21:29:26;21.52;;;11.13;;
35644;SDS011;21764;52.042;6.830;2023-02-28T21:34:27;21.25;;;9.63;;
35644;SDS011;21764;52.042;6.830;2023-02-28T21:39:28;18.77;;;10.90;;
35644;SDS011;21764;52.042;6.830;2023-02-28T21:44:29;19.50;;;10.48;;
35644;SDS011;21764;52.042;6.830;2023-02-28T21:49:31;86.40;;;36.38;;
35644;SDS011;21764;52.042;6.830;2023-02-28T21:54:32;30.17;;;14.00;;
35644;SDS011;21764;52.042;6.830;2023-02-28T21:59:32;25.02;;;12.20;;
35644;SDS011;21764;52.042;6.830;2023-02-28T22:04:33;26.65;;;12.90;;
35644;SDS011;21764;52.042;6.830;2023-02-28T22:09:34;37.22;;;17.23;;
35644;SDS011;21764;52.042;6.830;2023-02-28T22:14:37;22.20;;;11.50;;
35644;SDS011;21764;52.042;6.830;2023-02-28T22:19:39;26.47;;;13.03;;
35644;SDS011;21764;52.042;6.830;2023-02-28T22:24:40;46.33;;;22.90;;
35644;SDS011;21764;52.042;6.830;2023-02-28T22:29:40;31.40;;;15.90;;
35644;SDS011;21764;52.042;6.830;2023-02-28T22:34:41;35.90;;;15.48;;
35644;SDS011;21764;52.042;6.830;2023-02-28T22:39:41;53.85;;;20.67;;
35644;SDS011;21764;52.042;6.830;2023-02-28T22:44:42;27.10;;;13.48;;
35644;SDS011;21764;52.042;6.830;2023-02-28T22:49:45;18.27;;;11.18;;
35644;SDS011;21764;52.042;6.830;2023-02-28T22:54:49;16.10;;;10.30;;
35644;SDS011;21764;52.042;6.830;2023-02-28T22:59:50;16.17;;;10.68;;
35644;SDS011;21764;52.042;6.830;2023-02-28T23:04:53;18.40;;;10.48;;
35644;SDS011;21764;52.042;6.830;2023-02-28T23:09:54;27.15;;;11.10;;
35644;SDS011;21764;52.042;6.830;2023-02-28T23:14:55;20.95;;;10.15;;
35644;SDS011;21764;52.042;6.830;2023-02-28T23:19:56;21.02;;;11.05;;
35644;SDS011;21764;52.042;6.830;2023-02-28T23:24:56;25.10;;;11.77;;
35644;SDS011;21764;52.042;6.830;2023-02-28T23:29:57;17.33;;;10.88;;
35644;SDS011;21764;52.042;6.830;2023-02-28T23:34:58;17.33;;;9.93;;
35644;SDS011;21764;52.042;6.830;2023-02-28T23:39:59;18.67;;;10.50;;
35644;SDS011;21764;52.042;6.830;2023-02-28T23:45:00;19.75;;;10.82;;
35644;SDS011;21764;52.042;6.830;2023-02-28T23:50:00;19.52;;;10.02;;
35644;SDS011;21764;52.042;6.830;2023-02-28T23:55:02;22.10;;;11.18;;
